Time;durP1;ratioP1;P1;durP2;ratioP2;P2;SDS_P1;SDS_P2;PMS_P1;PMS_P2;Temp;Humidity;BMP_temperature;BMP_pressure;BME280_temperature;BME280_humidity;BME280_pressure;Samples;Min_cycle;Max_cycle;Signal;HPM_P1;HPM_P2
2022/08/23 00:00:25;;;;;;;4.32;0.68;;;;;;;34.10;26.91;101043.91;4970567;28;20638;-75
2022/08/23 00:02:53;;;;;;;1.38;0.70;;;;;;;34.01;27.72;101043.50;4976781;28;20125;-74
2022/08/23 00:05:22;;;;;;;6.43;0.82;;;;;;;33.96;27.73;101042.94;4973569;28;20050;-77
2022/08/23 00:07:52;;;;;;;5.97;0.55;;;;;;;33.95;27.11;101045.75;4972444;28;20508;-74
2022/08/23 00:10:21;;;;;;;5.57;0.80;;;;;;;33.96;27.49;101042.94;4979361;28;20050;-75
2022/08/23 00:12:50;;;;;;;3.47;0.60;;;;;;;34.00;27.47;101039.13;4976143;28;20492;-76
2022/08/23 00:15:21;;;;;;;4.68;0.80;;;;;;;34.05;27.15;101035.28;4968526;28;20058;-78
2022/08/23 00:17:49;;;;;;;;;;;;;;;34.09;27.14;101034.13;4979580;28;20063;-78
2022/08/23 00:20:20;;;;;;;4.57;0.63;;;;;;;34.01;27.27;101027.41;4970971;28;19961;-76
2022/08/23 00:22:59;;;;;;;4.20;0.80;;;;;;;33.86;27.71;101020.34;4968371;28;20496;-75
2022/08/23 00:25:28;;;;;;;2.47;0.65;;;;;;;33.73;28.00;101025.63;4979657;28;20046;-76
2022/08/23 00:27:56;;;;;;;9.40;0.77;;;;;;;33.62;28.62;101019.22;4984965;28;20050;-77
2022/08/23 00:30:31;;;;;;;7.40;0.80;;;;;;;33.63;27.95;101029.88;4983471;28;20058;-78
2022/08/23 00:33:00;;;;;;;2.58;0.60;;;;;;;33.58;28.41;101027.47;4990835;28;20448;-77
2022/08/23 00:35:28;;;;;;;1.45;0.60;;;;;;;33.59;28.07;101023.81;4991083;28;20042;-78
2022/08/23 00:37:59;;;;;;;1.63;0.75;;;;;;;33.43;28.40;101031.09;4996365;28;20408;-77
2022/08/23 00:40:27;;;;;;;2.20;0.75;;;;;;;33.36;28.91;101025.22;4992311;28;20047;-81
2022/08/23 00:48:43;;;;;;;3.70;0.93;;;;;;;33.13;29.31;101015.94;4984738;28;20073;-79
2022/08/23 00:51:16;;;;;;;2.08;0.68;;;;;;;33.15;29.05;101008.66;4981285;28;20061;-77
2022/08/23 00:53:50;;;;;;;3.00;0.68;;;;;;;33.03;29.57;101020.06;4990542;28;20062;-76
2022/08/23 00:56:23;;;;;;;6.50;0.70;;;;;;;32.97;30.00;101020.47;4993769;28;20455;-77
2022/08/23 00:58:52;;;;;;;1.10;0.60;;;;;;;33.01;29.68;101013.09;4985373;28;20050;-77
2022/08/23 01:01:21;;;;;;;5.80;0.93;;;;;;;33.05;29.87;101007.47;4985149;28;20109;-76
2022/08/23 01:03:55;;;;;;;2.80;0.60;;;;;;;33.10;30.76;101010.75;4990191;28;20047;-78
2022/08/23 01:06:27;;;;;;;1.13;0.70;;;;;;;33.14;30.21;101006.91;4984099;28;20082;-75
2022/08/23 01:09:01;;;;;;;3.50;0.70;;;;;;;33.10;29.87;101005.41;4989907;28;20078;-75
2022/08/23 01:11:34;;;;;;;5.10;0.70;;;;;;;32.96;30.51;101000.84;4992082;28;20046;-76
2022/08/23 01:14:10;;;;;;;1.00;0.70;;;;;;;32.87;30.30;101009.44;4983855;28;20054;-77
2022/08/23 01:16:44;;;;;;;1.27;0.73;;;;;;;32.78;31.83;101009.09;4986960;28;20133;-75
2022/08/23 01:19:18;;;;;;;6.63;1.30;;;;;;;32.63;31.53;101003.72;4985279;28;20089;-75
2022/08/23 01:21:53;;;;;;;1.15;0.75;;;;;;;32.47;31.41;101006.41;4986063;28;20047;-79
2022/08/23 01:24:24;;;;;;;3.15;0.82;;;;;;;32.30;31.56;101007.41;4998566;28;20529;-75
2022/08/23 01:26:52;;;;;;;3.25;0.57;;;;;;;32.18;32.67;101010.75;4983335;28;20449;-75
2022/08/23 01:29:27;;;;;;;2.65;0.90;;;;;;;32.10;32.67;101005.00;4993832;28;20062;-75
2022/08/23 01:31:56;;;;;;;2.83;0.80;;;;;;;31.98;32.38;101008.34;4993270;28;20768;-75
2022/08/23 01:34:28;;;;;;;3.55;0.82;;;;;;;31.87;33.78;101004.44;4995434;28;20054;-79
2022/08/23 01:37:00;;;;;;;1.92;0.82;;;;;;;31.77;33.82;101005.88;4993938;28;20548;-77
2022/08/23 01:39:30;;;;;;;;;;;;;;;31.67;33.56;101007.34;4994140;28;20042;-74
2022/08/23 01:41:58;;;;;;;2.20;0.75;;;;;;;31.62;33.63;101007.59;4997690;28;20474;-74
2022/08/23 01:44:27;;;;;;;2.72;0.85;;;;;;;31.62;33.58;101007.59;4992537;28;20614;-74
2022/08/23 01:46:56;;;;;;;1.58;0.77;;;;;;;31.58;32.45;101003.38;4994152;28;20504;-75
2022/08/23 01:49:24;;;;;;;1.45;0.77;;;;;;;31.48;32.69;101003.00;4995417;28;20080;-78
2022/08/23 01:51:54;;;;;;;3.95;0.68;;;;;;;31.45;32.98;101005.88;4996086;28;20042;-75
2022/08/23 01:54:22;;;;;;;2.95;0.90;;;;;;;31.36;34.16;101000.97;4993325;28;20511;-75
2022/08/23 01:56:53;;;;;;;2.17;0.75;;;;;;;31.28;34.49;101003.19;4997049;28;20147;-75
2022/08/23 01:59:21;;;;;;;3.28;0.70;;;;;;;31.20;35.29;101003.59;4992082;28;20046;-74
2022/08/23 02:01:50;;;;;;;2.25;0.63;;;;;;;31.13;35.00;100998.66;4988062;28;20108;-73
2022/08/23 02:04:18;;;;;;;2.63;0.90;;;;;;;31.04;35.04;100998.19;4988294;28;20119;-73
2022/08/23 02:06:47;;;;;;;1.60;0.80;;;;;;;30.95;35.48;101000.47;4985434;28;20394;-73
2022/08/23 02:09:15;;;;;;;4.25;0.95;;;;;;;30.74;35.68;101010.41;4990064;28;20038;-74
2022/08/23 02:11:44;;;;;;;1.23;0.88;;;;;;;30.49;37.40;101009.00;4993148;28;20038;-74
2022/08/23 02:14:17;;;;;;;0.68;0.50;;;;;;;30.31;38.11;101007.25;4993666;28;20046;-73
2022/08/23 02:16:48;;;;;;;1.70;0.77;;;;;;;30.22;37.96;101006.72;4989721;28;20898;-76
2022/08/23 02:19:18;;;;;;;1.77;0.70;;;;;;;30.19;35.90;101005.97;4987659;28;20072;-75
2022/08/23 02:21:47;;;;;;;2.13;0.55;;;;;;;30.22;36.17;101017.38;4989191;28;20046;-76
2022/08/23 02:24:18;;;;;;;1.00;0.40;;;;;;;30.27;36.03;101010.03;4988147;28;20046;-75
2022/08/23 02:26:48;;;;;;;1.98;0.80;;;;;;;30.29;35.74;101011.78;4991167;28;20054;-74
2022/08/23 02:29:21;;;;;;;1.73;0.60;;;;;;;30.22;35.53;101003.19;4989696;28;20446;-77
2022/08/23 02:31:50;;;;;;;1.98;0.47;;;;;;;30.12;35.97;101004.56;4989515;28;20448;-75
2022/08/23 02:34:19;;;;;;;1.38;0.50;;;;;;;30.00;36.33;101001.53;4988027;28;20419;-77
2022/08/23 02:36:48;;;;;;;0.52;0.50;;;;;;;29.95;36.05;101008.91;4991644;28;20054;-76
2022/08/23 02:39:18;;;;;;;1.77;0.50;;;;;;;29.90;36.36;101012.75;4984396;28;20394;-77
2022/08/23 02:41:48;;;;;;;0.80;0.50;;;;;;;29.85;36.49;101011.16;4985843;28;20077;-75
2022/08/23 02:44:18;;;;;;;0.52;0.50;;;;;;;29.80;36.82;101017.63;4981802;28;20057;-75
2022/08/23 02:46:48;;;;;;;1.60;0.70;;;;;;;29.82;36.84;101027.28;4990376;28;20057;-76
2022/08/23 02:49:17;;;;;;;3.38;0.60;;;;;;;29.81;36.73;101027.38;4990888;28;20416;-73
2022/08/23 02:51:46;;;;;;;1.48;0.70;;;;;;;29.76;38.83;101037.38;4982712;28;20077;-74
2022/08/23 02:54:14;;;;;;;1.20;0.88;;;;;;;29.66;39.19;101036.88;4987263;28;20408;-74
2022/08/23 02:56:43;;;;;;;1.60;0.73;;;;;;;29.55;39.60;101040.06;4992334;28;20050;-74
2022/08/23 02:59:12;;;;;;;5.50;0.80;;;;;;;29.44;39.34;101037.88;4989234;28;20046;-76
2022/08/23 03:01:43;;;;;;;1.02;0.40;;;;;;;29.33;39.16;101034.81;4994439;28;20100;-75
2022/08/23 03:04:12;;;;;;;1.38;0.60;;;;;;;29.23;39.48;101028.19;4987819;28;20088;-76
2022/08/23 03:06:41;;;;;;;1.83;0.80;;;;;;;29.10;39.82;101040.31;4989221;28;20096;-76
2022/08/23 03:09:17;;;;;;;2.47;0.40;;;;;;;29.06;39.51;101044.00;4988818;28;20054;-81
2022/08/23 03:11:47;;;;;;;2.08;0.47;;;;;;;29.06;39.44;101038.66;4991905;28;20050;-78
2022/08/23 03:14:15;;;;;;;1.75;0.50;;;;;;;29.04;40.81;101044.91;4984136;28;20058;-78
2022/08/23 03:16:46;;;;;;;1.77;0.68;;;;;;;29.02;40.72;101053.91;4981327;28;20051;-76
2022/08/23 03:19:14;;;;;;;3.15;0.60;;;;;;;28.99;40.03;101056.72;4987403;28;20060;-74
2022/08/23 03:21:43;;;;;;;2.95;0.50;;;;;;;28.95;40.10;101063.94;4988486;28;20427;-78
2022/08/23 03:24:12;;;;;;;3.03;0.68;;;;;;;28.91;40.18;101065.03;4994634;28;20563;-77
2022/08/23 03:26:44;;;;;;;2.80;0.50;;;;;;;28.88;40.20;101065.16;4995581;28;20483;-76
2022/08/23 03:29:12;;;;;;;;;;;;;;;28.81;38.88;101066.34;4996593;28;20060;-77
2022/08/23 03:31:40;;;;;;;1.48;0.40;;;;;;;28.76;38.47;101071.00;4985420;28;19926;-77
2022/08/23 03:34:11;;;;;;;2.92;0.55;;;;;;;28.71;37.85;101073.00;4977821;28;20440;-74
2022/08/23 03:36:40;;;;;;;1.13;0.50;;;;;;;28.68;38.30;101075.75;4985372;28;20055;-74
2022/08/23 03:39:09;;;;;;;0.77;0.43;;;;;;;28.63;37.92;101089.25;4982749;28;20416;-77
2022/08/23 03:41:38;;;;;;;1.13;0.50;;;;;;;28.58;37.65;101083.25;4973238;28;20400;-78
2022/08/23 03:44:07;;;;;;;0.65;0.45;;;;;;;28.51;37.82;101087.97;4975621;28;20049;-77
2022/08/23 03:46:36;;;;;;;2.75;0.55;;;;;;;28.47;38.12;101090.81;4987422;28;20426;-79
2022/08/23 03:49:05;;;;;;;0.57;0.45;;;;;;;28.42;38.17;101090.97;4986650;28;20488;-76
2022/08/23 03:51:35;;;;;;;1.23;0.52;;;;;;;28.39;38.63;101091.09;4985031;28;20496;-74
2022/08/23 03:54:04;;;;;;;1.55;0.60;;;;;;;28.36;39.21;101101.88;4990050;28;20042;-76
2022/08/23 03:56:36;;;;;;;1.85;0.80;;;;;;;28.33;40.15;101099.31;4994588;28;20455;-74
2022/08/23 03:59:08;;;;;;;0.60;0.50;;;;;;;28.30;39.93;101102.09;4992747;28;20042;-77
2022/08/23 04:01:36;;;;;;;;;;;;;;;28.27;40.28;101103.09;4994324;28;20116;-74
2022/08/23 04:04:08;;;;;;;1.13;0.63;;;;;;;28.22;40.20;101115.69;4989542;28;20018;-73
2022/08/23 04:06:38;;;;;;;5.50;1.00;;;;;;;28.16;40.59;101113.28;4993711;28;20046;-74
2022/08/23 04:09:07;;;;;;;1.45;0.98;;;;;;;28.08;40.34;101118.88;4994624;28;20058;-74
2022/08/23 04:11:38;;;;;;;1.40;0.85;;;;;;;28.05;40.43;101123.44;4983806;28;20054;-77
2022/08/23 04:14:07;;;;;;;2.00;0.80;;;;;;;27.99;40.29;101120.09;4986237;28;20057;-76
2022/08/23 04:16:36;;;;;;;1.63;0.45;;;;;;;27.92;40.28;101123.03;4987883;28;20284;-80
2022/08/23 04:19:05;;;;;;;1.25;0.57;;;;;;;27.87;40.35;101131.19;4988947;28;20109;-77
2022/08/23 04:21:36;;;;;;;4.57;0.70;;;;;;;27.79;40.19;101128.78;4998183;28;20072;-77
2022/08/23 04:24:06;;;;;;;1.70;0.70;;;;;;;27.73;40.63;101131.66;4991276;28;20760;-78
2022/08/23 04:26:35;;;;;;;2.65;0.63;;;;;;;27.69;40.81;101127.34;4997029;28;20567;-74
2022/08/23 04:29:03;;;;;;;1.00;0.70;;;;;;;27.66;41.02;101137.25;4987161;28;20056;-75
2022/08/23 04:31:32;;;;;;;2.97;0.93;;;;;;;27.61;41.05;101134.75;4960616;28;20571;-77
2022/08/23 04:34:01;;;;;;;1.40;0.73;;;;;;;27.58;41.08;101137.53;4969519;28;20069;-81
2022/08/23 04:36:32;;;;;;;3.17;0.70;;;;;;;27.54;41.06;101138.56;4968574;28;20046;-75
2022/08/23 04:39:00;;;;;;;2.40;0.90;;;;;;;27.51;41.77;101138.63;4957444;28;20055;-74
2022/08/23 04:44:16;;;;;;;2.92;0.57;;;;;;;27.33;41.87;101135.72;4959926;28;20082;-80
2022/08/23 04:46:45;;;;;;;1.23;0.80;;;;;;;27.23;44.18;101139.59;4961993;28;20102;-78
2022/08/23 04:49:13;;;;;;;2.70;0.80;;;;;;;27.11;43.78;101134.69;4964257;28;20054;-80
2022/08/23 04:51:42;;;;;;;1.63;0.68;;;;;;;27.06;42.63;101141.94;4965476;28;20126;-80
2022/08/23 04:54:10;;;;;;;1.65;0.80;;;;;;;27.03;42.81;101148.22;4961974;28;20051;-79
2022/08/23 04:56:41;;;;;;;2.35;0.60;;;;;;;26.98;42.84;101144.81;4965095;28;20050;-78
2022/08/23 04:59:10;;;;;;;1.23;0.63;;;;;;;26.95;43.10;101147.59;4968201;28;20077;-80
2022/08/23 05:01:40;;;;;;;1.48;0.70;;;;;;;26.90;42.83;101150.38;4969401;28;20054;-77
2022/08/23 05:04:09;;;;;;;0.95;0.60;;;;;;;26.81;43.40;101153.34;4968613;28;20521;-80
2022/08/23 05:06:38;;;;;;;1.02;0.65;;;;;;;26.71;43.53;101152.78;4963179;28;20055;-78
2022/08/23 05:09:07;;;;;;;1.88;0.80;;;;;;;26.67;44.19;101151.13;4963791;28;20055;-76
2022/08/23 05:11:36;;;;;;;2.80;0.73;;;;;;;26.63;44.13;101151.25;4966573;28;20040;-76
2022/08/23 05:14:06;;;;;;;1.45;0.70;;;;;;;26.61;44.13;101158.41;4969890;28;20050;-77
2022/08/23 05:16:35;;;;;;;1.40;0.90;;;;;;;26.57;44.48;101154.09;4966839;28;20051;-82
2022/08/23 05:19:04;;;;;;;2.92;1.55;;;;;;;26.52;44.75;101147.09;4968766;28;20050;-76
2022/08/23 05:21:32;;;;;;;1.52;0.88;;;;;;;26.45;44.81;101145.56;4968306;28;20588;-75
2022/08/23 05:24:02;;;;;;;1.63;0.90;;;;;;;26.36;44.80;101140.53;4967967;28;20062;-77
2022/08/23 05:26:30;;;;;;;1.35;0.80;;;;;;;26.30;45.35;101140.75;4966718;28;20418;-81
2022/08/23 05:28:59;;;;;;;1.30;0.82;;;;;;;26.21;45.85;101149.84;4968762;28;20066;-81
2022/08/23 05:31:29;;;;;;;2.08;1.00;;;;;;;26.17;45.86;101145.53;4991827;28;20054;-83
2022/08/23 05:33:58;;;;;;;1.30;0.80;;;;;;;26.11;46.67;101141.28;4995426;28;20476;-82
2022/08/23 05:36:27;;;;;;;1.92;0.80;;;;;;;26.10;47.07;101143.97;4990800;28;20500;-82
2022/08/23 05:38:55;;;;;;;1.02;0.68;;;;;;;26.05;47.26;101141.44;4989238;28;20506;-83
2022/08/23 05:41:24;;;;;;;2.15;0.70;;;;;;;25.97;46.71;101143.44;4987285;28;20202;-84
2022/08/23 05:43:52;;;;;;;0.95;0.75;;;;;;;25.90;47.29;101148.03;4990406;28;20042;-81
2022/08/23 05:46:22;;;;;;;1.05;0.70;;;;;;;25.81;47.40;101147.41;4990810;28;20054;-83
2022/08/23 05:48:53;;;;;;;2.05;0.90;;;;;;;25.73;47.22;101154.72;4987412;28;20062;-82
2022/08/23 05:51:23;;;;;;;2.65;0.88;;;;;;;25.64;48.22;101154.03;4994919;28;20056;-82
2022/08/23 05:53:54;;;;;;;2.03;0.80;;;;;;;25.57;48.59;101160.41;4988868;28;20129;-83
2022/08/23 05:56:25;;;;;;;0.93;0.77;;;;;;;25.48;49.14;101156.22;4993686;28;20100;-83
2022/08/23 05:58:57;;;;;;;1.20;0.80;;;;;;;25.45;49.08;101160.75;4984571;28;20065;-78
2022/08/23 06:01:26;;;;;;;2.40;0.77;;;;;;;25.45;49.50;101156.31;4989687;28;20125;-79
2022/08/23 06:03:56;;;;;;;2.15;1.00;;;;;;;25.45;49.56;101161.59;4990028;28;21216;-79
2022/08/23 06:06:25;;;;;;;1.20;0.80;;;;;;;25.44;49.58;101154.56;4995482;28;20077;-82
2022/08/23 06:08:54;;;;;;;1.15;0.63;;;;;;;25.41;48.99;101159.09;4992358;28;20058;-83
2022/08/23 06:11:24;;;;;;;1.17;0.70;;;;;;;25.32;47.90;101168.13;4989686;28;20093;-77
2022/08/23 06:13:54;;;;;;;0.70;0.57;;;;;;;25.26;48.40;101170.91;4986601;28;20062;-80
2022/08/23 06:16:25;;;;;;;2.47;1.10;;;;;;;25.05;49.57;101175.78;4988917;28;20145;-80
2022/08/23 06:18:56;;;;;;;1.83;1.30;;;;;;;24.72;50.91;101169.53;4989118;28;20134;-78
2022/08/23 06:21:26;;;;;;;1.85;1.15;;;;;;;24.33;52.33;101172.09;4985933;28;20567;-78
2022/08/23 06:23:55;;;;;;;4.55;1.40;;;;;;;24.09;53.14;101175.25;4986849;28;20421;-81
2022/08/23 06:26:26;;;;;;;2.45;1.20;;;;;;;23.92;52.85;101165.00;4988294;28;20100;-76
2022/08/23 06:28:57;;;;;;;5.30;1.17;;;;;;;23.90;52.77;101186.16;4989546;28;20065;-77
2022/08/23 06:31:45;;;;;;;1.88;0.98;;;;;;;23.91;53.76;101185.25;4991913;28;20045;-78
2022/08/23 06:34:20;;;;;;;4.53;1.20;;;;;;;23.88;53.34;101179.19;4994472;28;20049;-78
2022/08/23 06:36:50;;;;;;;3.10;0.95;;;;;;;23.88;53.87;101184.47;4981859;28;20069;-78
2022/08/23 06:39:19;;;;;;;1.30;1.00;;;;;;;23.75;54.78;101178.53;4987261;28;20074;-78
2022/08/23 06:41:49;;;;;;;1.70;1.13;;;;;;;23.70;54.56;101185.63;4985562;28;20090;-77
2022/08/23 06:44:18;;;;;;;2.47;1.00;;;;;;;23.56;55.44;101173.53;4987664;28;20109;-77
2022/08/23 06:46:47;;;;;;;7.90;1.20;;;;;;;23.49;55.18;101181.59;4986359;28;20050;-78
2022/08/23 06:49:17;;;;;;;2.22;1.20;;;;;;;23.26;56.51;101177.56;4987275;28;20050;-77
2022/08/23 06:51:49;;;;;;;3.03;1.23;;;;;;;23.17;56.97;101178.59;4990777;28;20051;-76
2022/08/23 06:54:20;;;;;;;4.07;1.13;;;;;;;23.15;56.49;101177.75;4990160;28;20745;-78
2022/08/23 06:56:50;;;;;;;1.52;1.10;;;;;;;23.16;56.27;101178.63;4988111;28;20588;-77
2022/08/23 06:59:20;;;;;;;4.22;1.05;;;;;;;23.13;56.11;101190.09;4991139;28;20042;-81
2022/08/23 07:01:52;;;;;;;6.15;1.00;;;;;;;23.09;56.45;101172.59;4996643;28;20520;-79
2022/08/23 07:04:24;;;;;;;2.92;1.08;;;;;;;23.07;55.97;101174.38;4984884;28;20073;-77
2022/08/23 07:06:54;;;;;;;2.80;0.90;;;;;;;23.05;55.10;101184.06;4986786;28;20054;-78
2022/08/23 07:09:23;;;;;;;1.90;1.00;;;;;;;23.00;55.12;101170.09;4985597;28;20050;-80
2022/08/23 07:11:51;;;;;;;1.48;0.80;;;;;;;22.94;49.07;101178.91;4989277;28;20050;-78
2022/08/23 07:14:22;;;;;;;3.03;1.00;;;;;;;22.89;56.08;101179.91;4983644;28;20050;-77
2022/08/23 07:16:52;;;;;;;1.20;0.82;;;;;;;22.79;54.21;101180.03;4984505;28;20049;-77
2022/08/23 07:19:26;;;;;;;1.25;0.60;;;;;;;22.68;47.63;101176.66;4995480;28;21139;-77
2022/08/23 07:21:55;;;;;;;2.03;0.90;;;;;;;22.65;51.45;101175.81;4989680;28;20050;-77
2022/08/23 07:24:23;;;;;;;2.15;0.70;;;;;;;22.56;51.87;101177.72;4985670;28;20551;-78
2022/08/23 07:26:52;;;;;;;0.80;0.70;;;;;;;22.53;53.42;101188.28;4993322;28;20081;-79
2022/08/23 07:29:22;;;;;;;2.30;0.88;;;;;;;22.47;55.11;101183.09;4985081;28;20058;-77
2022/08/23 07:31:53;;;;;;;4.03;1.27;;;;;;;22.48;53.67;101189.25;4987391;28;20054;-79
2022/08/23 07:34:24;;;;;;;0.82;0.50;;;;;;;22.44;50.47;101183.13;4990313;28;20480;-79
2022/08/23 07:36:54;;;;;;;1.00;0.65;;;;;;;22.43;52.48;101186.66;4988982;28;20054;-78
2022/08/23 07:39:25;;;;;;;1.42;0.75;;;;;;;22.44;52.26;101184.91;4987584;28;20054;-78
2022/08/23 07:41:53;;;;;;;2.20;0.80;;;;;;;22.42;51.53;101184.03;4986274;28;20050;-76
2022/08/23 07:44:22;;;;;;;1.00;0.47;;;;;;;22.40;47.13;101185.81;4988155;28;20085;-77
2022/08/23 07:46:51;;;;;;;1.48;0.50;;;;;;;22.34;46.00;101179.75;4985369;28;20734;-78
2022/08/23 07:49:19;;;;;;;2.05;0.60;;;;;;;22.33;41.48;101172.75;4986609;28;20146;-80
2022/08/23 07:51:52;;;;;;;9.75;4.80;;;;;;;22.33;46.55;101175.38;4991547;28;20101;-79
2022/08/23 07:54:24;;;;;;;8.68;4.65;;;;;;;22.35;44.47;101173.56;4990232;28;20059;-77
2022/08/23 07:56:52;;;;;;;16.50;8.00;;;;;;;22.37;45.00;101170.91;4985715;28;20144;-77
2022/08/23 07:59:21;;;;;;;5.90;3.00;;;;;;;22.36;41.74;101180.59;4992131;28;20046;-77
2022/08/23 08:01:49;;;;;;;5.95;2.33;;;;;;;22.36;42.77;101171.81;4985993;28;20042;-77
2022/08/23 08:04:18;;;;;;;4.50;2.20;;;;;;;22.34;42.69;101174.47;4987524;28;20053;-78
2022/08/23 08:06:50;;;;;;;1.80;0.80;;;;;;;22.30;40.97;101164.84;4983749;28;20049;-76
2022/08/23 08:09:25;;;;;;;;;;;;;;;22.23;42.67;101168.44;4983351;28;20058;-77
2022/08/23 08:11:53;;;;;;;4.70;1.30;;;;;;;22.14;42.21;101168.53;4982053;28;19932;-82
2022/08/23 08:14:22;;;;;;;2.25;0.70;;;;;;;22.06;41.09;101165.09;4987811;28;20042;-78
2022/08/23 08:16:51;;;;;;;0.88;0.63;;;;;;;21.98;42.67;101166.97;4987640;28;20059;-80
2022/08/23 08:19:22;;;;;;;1.15;0.90;;;;;;;21.98;49.25;101169.59;4986253;28;20052;-77
2022/08/23 08:21:52;;;;;;;1.77;0.87;;;;;;;21.93;49.71;101178.41;4983251;28;20057;-77
2022/08/23 08:24:21;;;;;;;2.88;1.00;;;;;;;21.91;51.74;101172.28;4984091;28;20525;-80
2022/08/23 08:26:50;;;;;;;2.10;1.20;;;;;;;21.84;52.41;101164.47;4981664;28;20125;-77
2022/08/23 08:29:18;;;;;;;2.42;0.80;;;;;;;21.80;52.16;101168.91;4987495;28;20055;-77
2022/08/23 08:31:47;;;;;;;1.70;0.88;;;;;;;21.73;51.87;101178.63;4988690;28;20038;-77
2022/08/23 08:34:16;;;;;;;0.93;0.63;;;;;;;21.61;51.36;101177.88;4992603;28;20050;-77
2022/08/23 08:36:49;;;;;;;0.95;0.85;;;;;;;21.51;52.12;101175.34;4988772;28;20057;-80
2022/08/23 08:39:22;;;;;;;2.10;0.80;;;;;;;21.49;52.76;101169.22;4987261;28;20161;-77
2022/08/23 08:42:07;;;;;;;1.02;0.70;;;;;;;21.45;53.07;101167.47;4989744;28;20412;-76
2022/08/23 08:44:41;;;;;;;1.10;0.80;;;;;;;21.40;53.39;101168.38;4993509;28;20530;-82
2022/08/23 08:47:14;;;;;;;2.85;1.02;;;;;;;21.37;53.89;101169.25;4993635;28;20404;-78
2022/08/23 08:49:49;;;;;;;1.13;0.70;;;;;;;21.37;51.82;101161.38;4992625;28;20116;-78
2022/08/23 08:52:23;;;;;;;2.20;1.00;;;;;;;21.32;52.43;101160.53;4988173;28;20046;-79
2022/08/23 08:55:01;;;;;;;0.82;0.80;;;;;;;21.31;53.02;101161.44;4989907;28;20054;-82
2022/08/23 08:57:38;;;;;;;1.63;1.10;;;;;;;21.30;56.21;101151.78;4987973;28;20054;-79
2022/08/23 09:00:11;;;;;;;1.77;1.10;;;;;;;21.29;56.64;101165.84;4989105;28;20058;-78
2022/08/23 09:02:40;;;;;;;1.30;0.80;;;;;;;21.31;56.84;101159.69;4987623;28;20054;-78
2022/08/23 09:05:14;;;;;;;0.75;0.60;;;;;;;21.29;55.25;101157.94;4988539;28;20509;-77
2022/08/23 09:07:54;;;;;;;1.55;0.73;;;;;;;21.26;54.52;101155.34;4983518;28;20491;-77
2022/08/23 09:10:47;;;;;;;2.05;0.98;;;;;;;21.18;55.45;101151.91;4988364;28;20145;-77
2022/08/23 09:13:33;;;;;;;0.60;0.60;;;;;;;21.07;53.19;101158.13;4987407;28;20412;-77
2022/08/23 09:16:13;;;;;;;0.77;0.70;;;;;;;20.94;51.25;101145.94;4988981;28;20053;-77
2022/08/23 09:18:42;;;;;;;1.80;0.90;;;;;;;20.87;55.45;101152.13;4990922;28;20510;-77
2022/08/23 09:21:11;;;;;;;1.77;0.70;;;;;;;20.85;55.14;101152.13;4989546;28;20050;-78
2022/08/23 09:23:43;;;;;;;2.05;1.30;;;;;;;20.83;53.46;101143.38;4990389;28;20046;-77
2022/08/23 09:26:23;;;;;;;0.70;0.50;;;;;;;20.82;50.98;101143.38;4988835;28;20046;-77
2022/08/23 09:28:55;;;;;;;0.75;0.40;;;;;;;20.77;50.21;101139.91;4988721;28;20141;-77
2022/08/23 09:31:41;;;;;;;0.50;0.50;;;;;;;20.69;50.15;101146.09;4989258;28;20051;-77
2022/08/23 09:34:15;;;;;;;0.70;0.40;;;;;;;20.57;49.93;101140.91;4986164;28;20054;-77
2022/08/23 09:36:44;;;;;;;1.00;0.35;;;;;;;20.45;49.98;101143.56;4986366;28;20042;-77
2022/08/23 09:39:28;;;;;;;1.10;0.45;;;;;;;20.39;50.88;101143.59;4989726;28;20050;-77
2022/08/23 09:41:58;;;;;;;1.33;0.32;;;;;;;20.38;51.13;101147.09;4990928;28;20440;-78
2022/08/23 09:44:38;;;;;;;1.25;0.35;;;;;;;20.38;51.08;101147.09;4986611;28;20054;-80
2022/08/23 09:47:10;;;;;;;0.50;0.40;;;;;;;20.38;50.36;101141.84;4987519;28;20050;-77
2022/08/23 09:49:40;;;;;;;0.50;0.50;;;;;;;20.39;50.27;101143.59;4986995;28;20141;-77
2022/08/23 09:52:20;;;;;;;0.40;0.40;;;;;;;20.37;50.20;101140.13;4987466;28;20109;-78
2022/08/23 09:54:57;;;;;;;0.88;0.38;;;;;;;20.35;49.99;101144.50;4987198;28;20057;-78
2022/08/23 09:57:30;;;;;;;2.40;0.35;;;;;;;20.31;49.96;101143.63;4983838;28;20517;-78
2022/08/23 10:00:02;;;;;;;0.40;0.38;;;;;;;20.26;50.30;101148.91;4989390;28;20417;-77
2022/08/23 10:02:34;;;;;;;4.05;0.50;;;;;;;20.19;51.87;101141.94;4989911;28;20054;-79
2022/08/23 10:05:05;;;;;;;0.95;0.40;;;;;;;20.06;52.45;101141.09;4983669;28;20050;-77
2022/08/23 10:07:39;;;;;;;3.03;0.70;;;;;;;19.93;53.34;101141.13;4981270;28;20050;-77
2022/08/23 10:10:22;;;;;;;1.73;0.90;;;;;;;19.77;55.07;101146.44;4989695;28;20061;-76
2022/08/23 10:12:55;;;;;;;2.03;0.77;;;;;;;19.72;55.42;101149.94;4982906;28;20050;-80
2022/08/23 10:15:29;;;;;;;1.33;0.80;;;;;;;19.69;55.68;101156.06;4982505;28;20046;-78
2022/08/23 10:18:03;;;;;;;2.10;0.80;;;;;;;19.70;56.14;101152.59;4988450;28;20058;-80
2022/08/23 10:20:39;;;;;;;1.88;1.40;;;;;;;19.70;60.96;101155.22;4987215;28;20432;-78
2022/08/23 10:23:21;;;;;;;3.72;1.00;;;;;;;19.69;60.37;101150.81;4987580;28;20142;-78
2022/08/23 10:25:57;;;;;;;1.77;1.55;;;;;;;19.57;63.52;101141.19;4985191;28;20137;-76
2022/08/23 10:31:35;;;;;;;1.95;0.95;;;;;;;19.43;61.76;101154.31;4978771;28;20262;-77
2022/08/23 10:34:22;;;;;;;0.93;0.80;;;;;;;19.38;61.35;101157.84;4969232;28;20046;-79
2022/08/23 10:37:00;;;;;;;3.10;1.42;;;;;;;19.36;60.79;101163.09;4973859;28;20677;-78
2022/08/23 10:39:30;;;;;;;1.98;1.13;;;;;;;19.35;62.01;101168.31;4963977;28;20046;-79
2022/08/23 10:42:06;;;;;;;1.48;1.05;;;;;;;19.34;62.38;101163.97;4971019;28;20054;-77
2022/08/23 10:44:42;;;;;;;1.17;1.05;;;;;;;19.31;64.06;101159.59;4963966;28;20481;-77
2022/08/23 10:47:26;;;;;;;2.25;1.00;;;;;;;19.25;63.33;101157.81;4970609;28;20101;-77
2022/08/23 10:49:55;;;;;;;1.42;0.98;;;;;;;19.22;63.66;101159.59;4963806;28;20057;-80
2022/08/23 10:52:29;;;;;;;1.67;1.10;;;;;;;19.16;64.16;101159.56;4959312;28;20079;-79
2022/08/23 10:55:05;;;;;;;1.20;1.00;;;;;;;19.17;64.36;101159.59;4955658;28;20058;-80
2022/08/23 10:57:37;;;;;;;3.83;1.23;;;;;;;19.09;65.30;101161.31;4964944;28;20042;-79
2022/08/23 11:00:13;;;;;;;3.63;1.00;;;;;;;19.03;65.44;101170.06;4962490;28;20051;-77
2022/08/23 11:02:47;;;;;;;1.75;1.20;;;;;;;19.02;65.91;101163.06;4963975;28;20554;-78
2022/08/23 11:05:23;;;;;;;1.85;1.38;;;;;;;19.01;66.04;101171.81;4965515;28;20585;-77
2022/08/23 11:08:00;;;;;;;3.97;1.30;;;;;;;18.99;67.37;101170.94;4961963;28;20051;-76
2022/08/23 11:10:43;;;;;;;1.95;1.10;;;;;;;18.93;67.17;101168.28;4966908;28;20082;-77
2022/08/23 11:13:24;;;;;;;2.90;1.20;;;;;;;18.89;67.34;101166.53;4963451;28;20062;-78
2022/08/23 11:16:05;;;;;;;4.28;1.00;;;;;;;18.89;67.85;101170.91;4965403;28;20058;-80
2022/08/23 11:18:40;;;;;;;2.13;1.20;;;;;;;18.88;67.70;101177.03;4964476;28;20051;-78
2022/08/23 11:21:32;;;;;;;2.83;1.42;;;;;;;18.82;68.35;101172.63;4964723;28;20649;-77
2022/08/23 11:24:32;;;;;;;2.42;1.40;;;;;;;18.78;68.67;101168.25;4953270;28;20054;-77
2022/08/23 11:27:06;;;;;;;1.40;0.98;;;;;;;18.73;68.73;101170.81;4962021;28;20051;-77
2022/08/23 11:29:42;;;;;;;1.98;1.38;;;;;;;18.66;68.84;101163.81;4968060;28;20046;-77
2022/08/23 11:32:28;;;;;;;2.38;1.10;;;;;;;18.65;69.75;101162.09;4987800;28;20439;-77
2022/08/23 11:35:08;;;;;;;1.73;1.33;;;;;;;18.61;70.22;101160.31;4986372;28;20144;-79
2022/08/23 11:37:58;;;;;;;2.17;1.35;;;;;;;18.54;70.83;101154.19;4987437;28;20046;-79
2022/08/23 11:40:58;;;;;;;2.00;1.35;;;;;;;18.52;70.60;101158.53;4988428;28;20133;-79
2022/08/23 11:43:32;;;;;;;1.55;1.20;;;;;;;18.49;71.63;101160.28;4982885;28;20090;-78
2022/08/23 11:46:33;;;;;;;2.65;1.40;;;;;;;18.42;72.03;101159.41;4987064;28;20431;-77
2022/08/23 11:49:48;;;;;;;2.35;1.58;;;;;;;18.33;73.00;101162.84;4977820;28;20446;-76
2022/08/23 11:52:56;;;;;;;1.45;1.20;;;;;;;18.33;73.05;101155.00;4951577;28;20047;-79
2022/08/23 11:55:53;;;;;;;2.92;1.40;;;;;;;18.30;72.92;101161.94;4962479;28;20533;-79
2022/08/23 11:58:28;;;;;;;1.92;1.35;;;;;;;18.25;73.74;101153.19;4984358;28;20120;-78
2022/08/23 12:01:07;;;;;;;2.25;1.60;;;;;;;18.24;74.24;101154.94;4990179;28;20050;-79